createdAt,value
2023-04-16T06:29:01.110Z,6.63
2023-04-16T06:34:03.203Z,6.73
2023-04-16T06:39:05.275Z,5.55
2023-04-16T06:44:07.339Z,5.90
2023-04-16T06:49:09.601Z,5.93
2023-04-16T06:54:11.871Z,5.55
2023-04-16T06:59:13.943Z,5.87
2023-04-16T07:04:16.377Z,5.60
2023-04-16T07:09:18.465Z,5.53
2023-04-16T07:14:20.735Z,5.30
2023-04-16T07:19:22.847Z,4.70
2023-04-16T07:24:25.162Z,4.53
2023-04-16T07:29:27.277Z,4.82
2023-04-16T07:34:29.344Z,4.43
2023-04-16T07:39:31.425Z,3.33
2023-04-16T07:44:33.577Z,4.47
2023-04-16T07:49:35.790Z,3.95
2023-04-16T07:54:37.859Z,3.73
2023-04-16T07:59:40.014Z,3.37
2023-04-16T08:04:45.399Z,3.20
2023-04-16T08:09:50.713Z,3.10
2023-04-16T08:14:52.831Z,3.30
2023-04-16T08:19:54.992Z,3.30
2023-04-16T08:24:57.098Z,2.90
2023-04-16T08:29:59.167Z,2.97
2023-04-16T08:35:01.371Z,2.65
2023-04-16T08:40:04.008Z,2.70
2023-04-16T08:45:16.803Z,3.00
2023-04-16T08:50:28.380Z,2.40
2023-04-16T08:55:36.945Z,2.72
2023-04-16T09:00:41.014Z,3.30
2023-04-16T09:05:44.142Z,2.57
2023-04-16T09:10:46.875Z,2.90
2023-04-16T09:15:55.264Z,2.70
2023-04-16T09:20:57.626Z,2.93
2023-04-16T09:26:00.364Z,3.00
2023-04-16T09:31:13.568Z,2.83
2023-04-16T09:36:23.422Z,2.83
2023-04-16T09:41:28.342Z,2.65
2023-04-16T09:46:31.951Z,2.92
2023-04-16T09:51:37.747Z,2.80
2023-04-16T09:56:42.110Z,3.30
2023-04-16T10:01:46.778Z,3.00
2023-04-16T10:07:05.872Z,2.40
2023-04-16T10:12:08.697Z,3.00
2023-04-16T10:17:11.004Z,2.70
2023-04-16T10:22:13.790Z,2.28
2023-04-16T10:27:17.262Z,2.40
2023-04-16T10:32:21.779Z,2.40
2023-04-16T10:37:31.400Z,2.20
2023-04-16T10:42:33.650Z,2.00
2023-04-16T10:47:40.445Z,1.80
2023-04-16T10:52:43.006Z,2.10
2023-04-16T10:57:49.731Z,2.28
2023-04-16T11:02:54.953Z,1.80
2023-04-16T11:08:14.445Z,1.80
2023-04-16T11:13:18.753Z,1.73
2023-04-16T11:18:20.838Z,1.40
2023-04-16T11:23:22.975Z,1.50
2023-04-16T11:28:35.869Z,1.60
2023-04-16T11:33:38.715Z,1.27
2023-04-16T11:38:43.584Z,1.40
2023-04-16T11:43:46.082Z,1.33
2023-04-16T11:48:56.175Z,1.20
2023-04-16T11:53:58.794Z,0.80
2023-04-16T11:59:11.808Z,0.93
2023-04-16T12:04:16.495Z,1.00
2023-04-16T12:09:27.692Z,0.70
2023-04-16T12:14:30.843Z,0.73
2023-04-16T12:19:33.008Z,0.70
2023-04-16T12:24:36.927Z,0.70
2023-04-16T12:29:39.361Z,0.90
2023-04-16T12:34:51.474Z,1.00
2023-04-16T12:39:54.284Z,0.90
2023-04-16T12:44:56.415Z,1.00
2023-04-16T12:49:59.292Z,1.10
2023-04-16T12:55:02.807Z,1.25
2023-04-16T13:00:06.649Z,1.10
2023-04-16T13:05:08.984Z,1.00
2023-04-16T13:10:12.148Z,0.75
2023-04-16T13:15:14.350Z,0.93
2023-04-16T13:20:16.547Z,0.63
2023-04-16T13:25:18.718Z,0.77
2023-04-16T13:30:20.775Z,1.10
2023-04-16T13:35:23.049Z,0.90
2023-04-16T13:40:25.150Z,0.60
2023-04-16T13:45:28.008Z,0.60
2023-04-16T13:50:30.429Z,0.80
2023-04-16T13:55:32.594Z,0.70
2023-04-16T14:00:34.762Z,0.70
2023-04-16T14:05:36.899Z,0.80
2023-04-16T14:10:38.955Z,0.80
2023-04-16T14:15:41.037Z,0.80
2023-04-16T14:20:43.635Z,0.70
2023-04-16T14:25:45.766Z,0.60
2023-04-16T14:30:48.152Z,0.62
2023-04-16T14:35:51.453Z,0.60
2023-04-16T14:40:53.578Z,0.60
2023-04-16T14:45:57.116Z,0.50
2023-04-16T14:50:59.201Z,0.60
2023-04-16T14:56:01.673Z,0.60
2023-04-16T15:01:03.888Z,0.60
2023-04-16T15:06:06.185Z,0.93
2023-04-16T15:11:08.279Z,0.62
2023-04-16T15:16:10.419Z,0.50
2023-04-16T15:21:12.897Z,0.60
2023-04-16T15:26:15.375Z,0.70
2023-04-16T15:31:17.572Z,0.50
2023-04-16T15:36:19.918Z,0.50
2023-04-16T15:41:22.075Z,0.60
2023-04-16T15:46:24.252Z,0.57
2023-04-16T15:51:26.790Z,0.70
2023-04-16T15:56:28.901Z,0.40
2023-04-16T16:01:31.278Z,0.60
2023-04-16T16:06:33.415Z,0.50
2023-04-16T16:11:38.398Z,0.80
2023-04-16T16:16:40.858Z,0.77
2023-04-16T16:21:43.042Z,0.70
2023-04-16T16:26:45.283Z,0.80
2023-04-16T16:31:47.469Z,0.90
2023-04-16T16:36:49.729Z,1.00
2023-04-16T16:41:54.891Z,0.90
2023-04-16T16:46:57.085Z,0.93
2023-04-16T16:51:59.185Z,0.90
2023-04-16T16:57:02.716Z,1.10
2023-04-16T17:02:05.813Z,0.82
2023-04-16T17:07:07.930Z,1.00
2023-04-16T17:12:10.041Z,1.03
2023-04-16T17:17:12.191Z,0.90
2023-04-16T17:22:14.276Z,0.95
2023-04-16T17:27:16.453Z,1.20
2023-04-16T17:32:18.711Z,1.03
2023-04-16T17:37:21.062Z,1.20
2023-04-16T17:42:24.561Z,1.08
2023-04-16T17:47:26.712Z,1.10
2023-04-16T17:52:28.976Z,1.30
2023-04-16T17:57:31.557Z,1.30
2023-04-16T18:02:33.731Z,1.30
2023-04-16T18:07:36.495Z,1.60
2023-04-16T18:12:38.956Z,1.40
2023-04-16T18:17:41.267Z,2.00
2023-04-16T18:22:43.394Z,2.33
2023-04-16T18:27:46.151Z,2.53
2023-04-16T18:33:10.609Z,2.30
2023-04-16T18:38:10.350Z,2.30
2023-04-16T18:43:12.503Z,2.35
2023-04-16T18:48:14.641Z,2.10
2023-04-16T18:53:16.848Z,2.23
2023-04-16T18:58:18.938Z,2.70
2023-04-16T19:03:21.535Z,2.20
2023-04-16T19:08:23.783Z,2.40
2023-04-16T19:13:26.047Z,2.20
2023-04-16T19:18:28.162Z,2.22
2023-04-16T19:23:30.413Z,2.30
2023-04-16T19:28:32.538Z,2.17
2023-04-16T19:33:35.467Z,2.10
2023-04-16T19:38:37.536Z,2.37
2023-04-16T19:43:39.664Z,2.57
2023-04-16T19:48:41.805Z,2.28
2023-04-16T19:53:43.855Z,2.20
2023-04-16T19:58:46.060Z,2.20
2023-04-16T20:03:48.239Z,2.00
2023-04-16T20:08:50.415Z,2.08
2023-04-16T20:13:52.465Z,1.80
2023-04-16T20:18:54.590Z,1.97
2023-04-16T20:23:56.781Z,1.80
2023-04-16T20:28:59.053Z,2.05
2023-04-16T20:34:01.289Z,1.90
2023-04-16T20:39:07.079Z,2.05
2023-04-16T20:44:10.022Z,1.73
2023-04-16T20:49:13.853Z,1.90
2023-04-16T20:54:15.966Z,2.03
2023-04-16T20:59:18.036Z,1.42
2023-04-16T21:04:20.303Z,1.70
2023-04-16T21:09:23.455Z,1.67
2023-04-16T21:14:25.639Z,1.83
2023-04-16T21:19:27.741Z,1.70
2023-04-16T21:24:31.856Z,1.60
2023-04-16T21:29:33.938Z,1.65
2023-04-16T21:34:36.009Z,1.90
2023-04-16T21:39:38.064Z,2.00
2023-04-16T21:44:40.538Z,1.67
2023-04-16T21:49:42.608Z,1.73
2023-04-16T21:54:45.444Z,1.90
2023-04-16T21:59:47.543Z,1.57
2023-04-16T22:04:50.408Z,1.70
2023-04-16T22:09:53.353Z,1.35
2023-04-16T22:15:02.450Z,1.77
2023-04-16T22:20:07.171Z,1.58
2023-04-16T22:25:10.118Z,1.50
2023-04-16T22:30:13.194Z,1.40
2023-04-16T22:35:15.548Z,1.30
2023-04-16T22:40:18.218Z,1.30
2023-04-16T22:45:20.314Z,1.40
2023-04-16T22:50:23.223Z,1.60
2023-04-16T22:55:25.544Z,1.70
2023-04-16T23:00:28.441Z,1.60
2023-04-16T23:05:30.632Z,1.47
2023-04-16T23:10:32.688Z,1.55
2023-04-16T23:15:35.022Z,1.45
2023-04-16T23:20:37.169Z,1.50
2023-04-16T23:25:41.570Z,1.33
2023-04-16T23:30:43.626Z,1.58
2023-04-16T23:35:47.219Z,1.25
2023-04-16T23:40:49.331Z,1.60
2023-04-16T23:45:51.461Z,1.52
2023-04-16T23:50:53.838Z,1.50
2023-04-16T23:55:55.978Z,1.50
